createdAt,value
2019-03-05T00:01:56.238Z,95783.61
2019-03-05T00:04:27.392Z,95789.95
2019-03-05T00:06:58.846Z,95788.64
2019-03-05T00:09:29.975Z,95787.21
2019-03-05T00:12:00.929Z,95794.97
2019-03-05T00:14:31.972Z,95795.25
2019-03-05T00:17:03.265Z,95790.23
2019-03-05T00:19:34.573Z,95790.20
2019-03-05T00:22:05.777Z,95783.19
2019-03-05T00:25:15.361Z,95778.67
2019-03-05T00:28:18.896Z,95790.84
2019-03-05T00:31:12.964Z,95793.23
2019-03-05T00:34:19.329Z,95794.66
2019-03-05T00:37:03.614Z,95806.09
2019-03-05T00:40:12.724Z,95807.70
2019-03-05T00:43:11.202Z,95809.59
2019-03-05T00:46:36.889Z,95804.45
2019-03-05T00:49:41.406Z,95810.47
2019-03-05T00:52:53.835Z,95818.23
2019-03-05T00:56:49.396Z,95817.72
2019-03-05T01:00:18.301Z,95819.56
2019-03-05T01:03:19.518Z,95832.72
2019-03-05T01:06:26.733Z,95848.16
2019-03-05T01:08:58.230Z,95854.81
2019-03-05T01:11:29.420Z,95848.39
2019-03-05T01:14:00.818Z,95848.89
2019-03-05T01:16:34.362Z,95854.55
2019-03-05T01:19:05.469Z,95861.05
2019-03-05T01:21:36.526Z,95859.19
2019-03-05T01:24:07.684Z,95853.45
2019-03-05T01:26:39.313Z,95868.57
2019-03-05T01:29:10.336Z,95855.66
2019-03-05T01:32:19.225Z,95861.92
2019-03-05T01:35:09.179Z,95859.94
2019-03-05T01:37:40.603Z,95856.92
2019-03-05T01:40:29.561Z,95862.45
2019-03-05T01:43:00.624Z,95863.05
2019-03-05T01:45:31.928Z,95857.44
2019-03-05T01:48:03.412Z,95855.70
2019-03-05T01:50:34.710Z,95850.55
2019-03-05T01:53:06.098Z,95846.52
2019-03-05T01:55:37.589Z,95844.04
2019-03-05T01:58:08.802Z,95854.27
2019-03-05T02:00:39.791Z,95856.58
2019-03-05T02:03:10.997Z,95844.33
2019-03-05T02:05:42.044Z,95850.15
2019-03-05T02:08:13.166Z,95861.81
2019-03-05T02:10:44.609Z,95862.23
2019-03-05T02:13:16.213Z,95839.89
2019-03-05T02:15:47.464Z,95848.05
2019-03-05T02:18:20.965Z,95841.84
2019-03-05T02:20:52.016Z,95842.14
2019-03-05T02:24:07.321Z,95839.13
2019-03-05T02:27:50.322Z,95831.71
2019-03-05T02:31:29.692Z,95838.71
2019-03-05T02:34:24.354Z,95835.06
2019-03-05T02:37:53.219Z,95831.19
2019-03-05T02:41:30.831Z,95826.32
2019-03-05T02:45:05.562Z,95826.53
2019-03-05T02:48:26.401Z,95822.19
2019-03-05T02:51:36.773Z,95822.13
2019-03-05T02:55:16.296Z,95822.23
2019-03-05T02:57:45.528Z,95824.81
2019-03-05T03:00:23.952Z,95814.02
2019-03-05T03:03:01.758Z,95817.45
2019-03-05T03:05:43.130Z,95813.58
2019-03-05T03:08:14.497Z,95812.88
2019-03-05T03:10:46.302Z,95804.53
2019-03-05T03:13:17.825Z,95812.15
2019-03-05T03:15:49.375Z,95815.30
2019-03-05T03:18:21.697Z,95829.52
2019-03-05T03:20:53.308Z,95828.41
2019-03-05T03:23:24.383Z,95835.06
2019-03-05T03:25:55.888Z,95835.17
2019-03-05T03:28:27.085Z,95834.07
2019-03-05T03:30:58.187Z,95845.25
2019-03-05T03:33:29.666Z,95841.73
2019-03-05T03:36:01.077Z,95836.22
2019-03-05T03:38:32.390Z,95851.22
2019-03-05T03:41:03.873Z,95843.66
2019-03-05T03:43:35.096Z,95849.57
2019-03-05T03:46:06.239Z,95847.17
2019-03-05T03:48:37.302Z,95834.23
2019-03-05T03:51:08.362Z,95842.20
2019-03-05T03:53:39.697Z,95846.55
2019-03-05T03:56:10.817Z,95841.11
2019-03-05T03:58:41.960Z,95836.84
2019-03-05T04:01:13.428Z,95835.29
2019-03-05T04:03:44.656Z,95846.84
2019-03-05T04:06:15.954Z,95842.42
2019-03-05T04:08:47.203Z,95842.91
2019-03-05T04:11:18.503Z,95847.22
2019-03-05T04:13:49.795Z,95845.66
2019-03-05T04:16:22.025Z,95843.97
2019-03-05T04:18:52.987Z,95842.11
2019-03-05T04:21:23.952Z,95847.08
2019-03-05T04:23:55.171Z,95847.22
2019-03-05T04:26:26.497Z,95850.46
2019-03-05T04:28:57.516Z,95854.09
2019-03-05T04:31:28.516Z,95847.31
2019-03-05T04:34:00.048Z,95845.87
2019-03-05T04:36:31.028Z,95843.42
2019-03-05T04:39:02.524Z,95848.30
2019-03-05T04:41:34.771Z,95851.14
2019-03-05T04:44:06.036Z,95852.02
2019-03-05T04:46:40.329Z,95849.81
2019-03-05T04:49:29.166Z,95853.20
2019-03-05T04:52:03.498Z,95851.78
2019-03-05T04:54:34.720Z,95851.78
2019-03-05T04:57:05.868Z,95845.46
2019-03-05T04:59:37.431Z,95842.69
2019-03-05T05:02:08.503Z,95839.09
2019-03-05T05:04:40.363Z,95853.62
2019-03-05T05:07:11.415Z,95855.02
2019-03-05T05:09:42.883Z,95853.28
2019-03-05T05:12:14.117Z,95861.92
2019-03-05T05:14:45.317Z,95859.92
2019-03-05T05:17:16.376Z,95860.92
2019-03-05T05:19:47.350Z,95862.34
2019-03-05T05:22:18.452Z,95851.67
2019-03-05T05:24:49.615Z,95860.54
2019-03-05T05:27:22.413Z,95861.54
2019-03-05T05:29:53.471Z,95857.81
2019-03-05T05:32:24.779Z,95858.02
2019-03-05T05:34:56.593Z,95854.57
2019-03-05T05:37:27.583Z,95845.23
2019-03-05T05:40:23.081Z,95850.80
2019-03-05T05:42:54.670Z,95841.14
2019-03-05T05:45:28.898Z,95849.08
2019-03-05T05:48:00.099Z,95844.66
2019-03-05T05:50:31.316Z,95852.80
2019-03-05T05:53:02.325Z,95843.53
2019-03-05T05:55:33.298Z,95845.17
2019-03-05T05:58:05.501Z,95844.26
2019-03-05T06:00:40.899Z,95838.22
2019-03-05T06:03:15.092Z,95847.28
2019-03-05T06:05:46.593Z,95853.19
2019-03-05T06:08:17.934Z,95868.39
2019-03-05T06:10:49.243Z,95869.77
2019-03-05T06:13:20.312Z,95874.72
2019-03-05T06:15:52.247Z,95877.25
2019-03-05T06:18:23.222Z,95867.48
2019-03-05T06:20:54.701Z,95881.95
2019-03-05T06:23:25.763Z,95883.89
2019-03-05T06:25:57.458Z,95877.94
2019-03-05T06:28:29.075Z,95874.92
2019-03-05T06:31:00.536Z,95877.34
2019-03-05T06:33:32.092Z,95878.14
2019-03-05T06:36:03.383Z,95882.46
2019-03-05T06:38:34.631Z,95873.12
2019-03-05T06:41:11.203Z,95874.72
2019-03-05T06:43:44.754Z,95875.84
2019-03-05T06:46:16.091Z,95878.64
2019-03-05T06:48:48.387Z,95890.09
2019-03-05T06:51:19.933Z,95895.24
2019-03-05T06:53:52.259Z,95888.00
2019-03-05T06:56:23.667Z,95896.14
2019-03-05T06:58:54.709Z,95900.37
2019-03-05T07:01:26.163Z,95898.65
2019-03-05T07:03:57.515Z,95904.89
2019-03-05T07:06:57.375Z,95897.66
2019-03-05T07:10:17.338Z,95910.61
2019-03-05T07:13:00.630Z,95908.72
2019-03-05T07:16:00.512Z,95902.48
2019-03-05T07:18:46.299Z,95907.31
2019-03-05T07:22:12.762Z,95901.06
2019-03-05T07:24:52.221Z,95902.28
2019-03-05T07:27:40.963Z,95899.98
2019-03-05T07:30:23.095Z,95893.45
2019-03-05T07:32:55.068Z,95896.45
2019-03-05T07:35:31.382Z,95897.56
2019-03-05T07:38:02.724Z,95906.12
2019-03-05T07:40:33.766Z,95901.37
2019-03-05T07:43:05.009Z,95897.27
2019-03-05T07:45:36.136Z,95893.73
2019-03-05T07:48:07.511Z,95900.27
2019-03-05T07:50:38.962Z,95894.52
2019-03-05T07:53:09.953Z,95896.92
2019-03-05T07:55:40.919Z,95889.32
2019-03-05T07:58:11.911Z,95879.31
2019-03-05T08:00:42.935Z,95881.76
2019-03-05T08:03:14.664Z,95886.53
2019-03-05T08:05:47.520Z,95903.70
2019-03-05T08:09:13.388Z,95902.36
2019-03-05T08:11:44.838Z,95895.86
2019-03-05T08:15:01.910Z,95896.05
2019-03-05T08:17:33.501Z,95901.30
2019-03-05T08:20:05.371Z,95909.64
2019-03-05T08:22:36.724Z,95897.48
2019-03-05T08:25:09.578Z,95903.44
2019-03-05T08:27:40.796Z,95902.13
2019-03-05T08:30:15.023Z,95907.78
2019-03-05T08:32:46.207Z,95901.40
2019-03-05T08:35:17.271Z,95913.67
2019-03-05T08:37:48.480Z,95920.31
2019-03-05T08:40:19.685Z,95919.80
2019-03-05T08:42:51.990Z,95925.56
2019-03-05T08:45:29.190Z,95927.78
2019-03-05T08:47:57.174Z,95920.88
2019-03-05T08:50:28.153Z,95921.41
2019-03-05T08:53:00.332Z,95930.77
2019-03-05T08:55:32.935Z,95933.58
2019-03-05T08:58:04.261Z,95938.14
2019-03-05T09:00:35.862Z,95938.73
2019-03-05T09:03:07.028Z,95942.38
2019-03-05T09:05:38.071Z,95949.03
2019-03-05T09:08:09.849Z,95935.67
2019-03-05T09:10:40.996Z,95954.06
2019-03-05T09:13:12.778Z,95950.11
2019-03-05T09:15:43.986Z,95944.72
2019-03-05T09:18:15.770Z,95944.27
2019-03-05T09:20:47.474Z,95954.20
2019-03-05T09:23:18.815Z,95944.83
2019-03-05T09:25:50.538Z,95952.27
2019-03-05T09:28:22.511Z,95950.95
2019-03-05T09:30:53.882Z,95958.86
2019-03-05T09:33:24.890Z,95952.13
2019-03-05T09:35:56.281Z,95950.18
2019-03-05T09:38:29.163Z,95954.34
2019-03-05T09:41:01.366Z,95950.46
2019-03-05T09:43:32.691Z,95947.45
2019-03-05T09:46:04.105Z,95946.47
2019-03-05T09:48:35.371Z,95950.33
2019-03-05T09:51:06.605Z,95937.23
2019-03-05T09:53:37.804Z,95948.13
2019-03-05T09:56:08.900Z,95941.38
2019-03-05T09:58:41.633Z,95936.36
2019-03-05T10:01:13.015Z,95950.55
2019-03-05T10:03:44.536Z,95942.01
2019-03-05T10:06:16.045Z,95948.38
2019-03-05T10:08:47.422Z,95935.16
2019-03-05T10:11:19.355Z,95945.49
2019-03-05T10:13:50.626Z,95940.83
2019-03-05T10:16:22.055Z,95934.80
2019-03-05T10:18:53.521Z,95938.44
2019-03-05T10:21:24.886Z,95949.84
2019-03-05T10:23:56.129Z,95949.69
2019-03-05T10:26:29.184Z,95947.80
2019-03-05T10:29:00.645Z,95939.48
2019-03-05T10:31:33.285Z,95959.17
2019-03-05T10:34:06.557Z,95963.13
2019-03-05T10:36:37.528Z,95954.45
2019-03-05T10:39:30.788Z,95969.46
2019-03-05T10:42:03.706Z,95951.08
2019-03-05T10:44:35.337Z,95950.71
2019-03-05T10:47:06.774Z,95940.58
2019-03-05T10:49:40.128Z,95946.26
2019-03-05T10:52:12.257Z,95938.95
2019-03-05T10:54:44.180Z,95936.02
2019-03-05T10:57:16.223Z,95934.09
2019-03-05T10:59:47.835Z,95939.24
2019-03-05T11:02:19.676Z,95929.70
2019-03-05T11:04:52.384Z,95925.38
2019-03-05T11:07:23.897Z,95933.44
2019-03-05T11:09:55.796Z,95934.27
2019-03-05T11:12:27.582Z,95924.06
2019-03-05T11:14:59.653Z,95918.08
2019-03-05T11:17:31.065Z,95921.58
2019-03-05T11:20:02.409Z,95913.91
2019-03-05T11:22:33.477Z,95914.09
2019-03-05T11:25:04.739Z,95906.73
2019-03-05T11:27:37.260Z,95897.19
2019-03-05T11:30:12.328Z,95896.44
2019-03-05T11:32:44.214Z,95910.02
2019-03-05T11:35:19.133Z,95903.94
2019-03-05T11:37:51.306Z,95910.69
2019-03-05T11:40:22.773Z,95911.08
2019-03-05T11:42:54.962Z,95914.91
2019-03-05T11:45:27.391Z,95890.91
2019-03-05T11:47:58.959Z,95902.61
2019-03-05T11:50:30.419Z,95913.34
2019-03-05T11:53:06.020Z,95910.90
2019-03-05T11:55:37.490Z,95925.05
2019-03-05T11:58:08.633Z,95914.31
2019-03-05T12:00:57.191Z,95918.08
2019-03-05T12:03:28.791Z,95921.44
2019-03-05T12:05:59.898Z,95911.80
2019-03-05T12:08:31.848Z,95912.19
2019-03-05T12:11:02.986Z,95906.09
2019-03-05T12:13:34.707Z,95916.89
2019-03-05T12:16:15.171Z,95919.30
2019-03-05T12:18:45.494Z,95905.58
2019-03-05T12:21:16.979Z,95904.87
2019-03-05T12:23:48.423Z,95922.73
2019-03-05T12:26:19.779Z,95923.55
2019-03-05T12:28:51.655Z,95918.08
2019-03-05T12:31:23.602Z,95923.83
2019-03-05T12:33:54.665Z,95912.00
2019-03-05T12:36:25.993Z,95905.00
2019-03-05T12:38:56.969Z,95907.64
2019-03-05T12:41:28.727Z,95916.19
2019-03-05T12:43:59.760Z,95906.59
2019-03-05T12:46:30.777Z,95909.38
2019-03-05T12:49:02.461Z,95922.64
2019-03-05T12:51:33.959Z,95916.44
2019-03-05T12:54:05.355Z,95910.09
2019-03-05T12:56:37.312Z,95903.23
2019-03-05T12:59:08.635Z,95911.37
2019-03-05T13:01:40.159Z,95908.67
2019-03-05T13:04:11.465Z,95914.50
2019-03-05T13:06:43.191Z,95927.34
2019-03-05T13:09:19.657Z,95927.06
2019-03-05T13:11:51.003Z,95919.82
2019-03-05T13:14:22.653Z,95922.05
2019-03-05T13:16:53.642Z,95934.43
2019-03-05T13:19:24.986Z,95935.82
2019-03-05T13:21:56.441Z,95944.94
2019-03-05T13:24:27.455Z,95935.52
2019-03-05T13:26:59.736Z,95948.04
2019-03-05T13:29:30.755Z,95942.64
2019-03-05T13:32:02.228Z,95951.33
2019-03-05T13:34:33.567Z,95955.09
2019-03-05T13:37:05.138Z,95955.64
2019-03-05T13:39:36.216Z,95964.13
2019-03-05T13:42:07.994Z,95962.18
2019-03-05T13:44:39.053Z,95961.50
2019-03-05T13:47:13.338Z,95963.83
2019-03-05T13:50:28.290Z,95967.35
2019-03-05T13:53:39.967Z,95967.50
2019-03-05T13:56:58.938Z,95980.34
2019-03-05T13:59:51.954Z,95976.33
2019-03-05T14:02:32.277Z,95976.10
2019-03-05T14:05:50.079Z,95975.69
2019-03-05T14:09:12.854Z,95986.03
2019-03-05T14:11:44.954Z,95983.09
2019-03-05T14:14:31.032Z,95976.72
2019-03-05T14:17:19.868Z,95976.59
2019-03-05T14:19:59.166Z,95984.97
2019-03-05T14:22:30.252Z,95984.39
2019-03-05T14:25:03.057Z,95986.48
2019-03-05T14:27:34.116Z,95990.01
2019-03-05T14:30:06.672Z,95996.36
2019-03-05T14:32:37.773Z,95997.22
2019-03-05T14:35:14.208Z,95999.77
2019-03-05T14:37:45.839Z,96011.61
2019-03-05T14:40:24.547Z,96009.72
2019-03-05T14:42:55.060Z,96009.06
2019-03-05T14:45:29.139Z,96006.77
2019-03-05T14:48:02.238Z,96004.34
2019-03-05T14:50:34.518Z,96017.58
2019-03-05T14:53:06.169Z,96024.17
2019-03-05T14:55:38.960Z,96026.91
2019-03-05T14:58:10.377Z,96021.01
2019-03-05T15:00:41.656Z,96030.62
2019-03-05T15:03:12.766Z,96039.83
2019-03-05T15:05:45.389Z,96033.70
2019-03-05T15:08:17.432Z,96042.14
2019-03-05T15:10:48.551Z,96045.08
2019-03-05T15:13:20.505Z,96047.09
2019-03-05T15:15:51.620Z,96052.73
2019-03-05T15:18:23.048Z,96055.98
2019-03-05T15:20:54.260Z,96066.77
2019-03-05T15:23:26.166Z,96058.17
2019-03-05T15:25:57.495Z,96065.69
2019-03-05T15:28:29.317Z,96077.22
2019-03-05T15:31:01.115Z,96066.99
2019-03-05T15:33:32.114Z,96073.63
2019-03-05T15:36:03.432Z,96075.66
2019-03-05T15:38:34.803Z,96082.41
2019-03-05T15:41:06.240Z,96087.42
2019-03-05T15:43:37.347Z,96089.08
2019-03-05T15:46:09.131Z,96093.42
2019-03-05T15:48:40.430Z,96087.94
2019-03-05T15:51:12.000Z,96090.80
2019-03-05T15:56:15.092Z,96092.72
2019-03-05T15:58:46.121Z,96098.89
2019-03-05T16:01:22.182Z,96103.55
2019-03-05T16:03:50.728Z,96099.00
2019-03-05T16:06:21.739Z,96101.11
2019-03-05T16:08:52.720Z,96103.89
2019-03-05T16:11:24.582Z,96104.52
2019-03-05T16:13:56.825Z,96109.77
2019-03-05T16:16:29.118Z,96103.87
2019-03-05T16:19:00.981Z,96110.24
2019-03-05T16:21:32.620Z,96110.44
2019-03-05T16:24:03.886Z,96108.17
2019-03-05T16:26:35.013Z,96107.23
2019-03-05T16:29:06.144Z,96106.95
2019-03-05T16:31:57.284Z,96098.48
2019-03-05T16:34:46.875Z,96093.61
2019-03-05T16:37:31.135Z,96093.25
2019-03-05T16:40:18.616Z,96092.16
2019-03-05T16:43:21.521Z,96091.77
2019-03-05T16:46:20.667Z,96088.16
2019-03-05T16:49:11.070Z,96089.77
2019-03-05T16:51:51.098Z,96094.09
2019-03-05T16:54:28.901Z,96097.52
2019-03-05T16:57:18.834Z,96102.46
2019-03-05T17:00:09.061Z,96108.91
2019-03-05T17:03:05.373Z,96110.12
2019-03-05T17:05:50.481Z,96122.59
2019-03-05T17:08:35.923Z,96139.11
2019-03-05T17:11:21.575Z,96150.50
2019-03-05T17:13:53.227Z,96152.39
2019-03-05T17:16:25.679Z,96155.24
2019-03-05T17:18:56.999Z,96154.33
2019-03-05T17:21:29.703Z,96156.55
2019-03-05T17:24:00.770Z,96158.26
2019-03-05T17:26:32.703Z,96160.06
2019-03-05T17:29:04.125Z,96161.37
2019-03-05T17:31:35.264Z,96168.02
2019-03-05T17:34:06.356Z,96168.11
2019-03-05T17:36:37.665Z,96173.53
2019-03-05T17:39:17.129Z,96173.71
2019-03-05T17:41:48.823Z,96178.95
2019-03-05T17:44:20.118Z,96175.11
2019-03-05T17:46:51.804Z,96177.23
2019-03-05T17:49:23.464Z,96173.13
2019-03-05T17:51:54.521Z,96177.95
2019-03-05T17:54:26.278Z,96189.42
2019-03-05T17:56:57.714Z,96190.53
2019-03-05T17:59:29.577Z,96195.67
2019-03-05T18:02:00.614Z,96204.64
2019-03-05T18:04:32.048Z,96213.44
2019-03-05T18:07:03.576Z,96215.95
2019-03-05T18:09:34.652Z,96222.69
2019-03-05T18:12:06.306Z,96223.51
2019-03-05T18:14:37.946Z,96228.77
2019-03-05T18:17:09.516Z,96226.83
2019-03-05T18:19:41.162Z,96230.46
2019-03-05T18:22:12.123Z,96242.52
2019-03-05T18:24:43.192Z,96238.70
2019-03-05T18:27:14.311Z,96245.02
2019-03-05T18:29:46.220Z,96250.02
2019-03-05T18:32:17.501Z,96245.41
2019-03-05T18:34:48.748Z,96248.67
2019-03-05T18:37:20.060Z,96252.52
2019-03-05T18:39:52.357Z,96244.56
2019-03-05T18:42:24.036Z,96259.45
2019-03-05T18:44:55.456Z,96257.28
2019-03-05T18:47:26.771Z,96255.79
2019-03-05T18:49:58.194Z,96257.28
2019-03-05T18:52:30.391Z,96252.63
2019-03-05T18:55:02.581Z,96259.28
2019-03-05T18:57:35.825Z,96259.48
2019-03-05T19:00:11.341Z,96263.76
2019-03-05T19:02:44.036Z,96263.45
2019-03-05T19:05:16.289Z,96266.98
2019-03-05T19:07:47.412Z,96267.77
2019-03-05T19:10:28.648Z,96281.78
2019-03-05T19:13:01.997Z,96281.80
2019-03-05T19:15:33.584Z,96281.27
2019-03-05T19:18:05.109Z,96283.09
2019-03-05T19:20:36.574Z,96282.19
2019-03-05T19:23:07.622Z,96285.92
2019-03-05T19:25:38.968Z,96287.04
2019-03-05T19:28:11.505Z,96285.33
2019-03-05T19:30:42.768Z,96293.59
2019-03-05T19:33:13.912Z,96292.71
2019-03-05T19:35:45.407Z,96299.13
2019-03-05T19:38:16.808Z,96295.81
2019-03-05T19:40:48.126Z,96299.94
2019-03-05T19:43:19.416Z,96294.21
2019-03-05T19:45:50.509Z,96302.17
2019-03-05T19:48:21.796Z,96304.41
2019-03-05T19:50:53.485Z,96298.34
2019-03-05T19:53:24.769Z,96299.95
2019-03-05T19:55:55.965Z,96298.93
2019-03-05T19:58:27.210Z,96303.48
2019-03-05T20:01:04.736Z,96304.26
2019-03-05T20:03:36.146Z,96303.34
2019-03-05T20:06:08.727Z,96296.02
2019-03-05T20:08:40.544Z,96296.51
2019-03-05T20:11:11.814Z,96299.03
2019-03-05T20:13:43.178Z,96303.39
2019-03-05T20:16:17.185Z,96306.40
2019-03-05T20:18:48.526Z,96304.89
2019-03-05T20:21:19.644Z,96308.00
2019-03-05T20:23:50.917Z,96308.30
2019-03-05T20:26:22.018Z,96306.98
2019-03-05T20:28:53.552Z,96306.93
2019-03-05T20:31:25.092Z,96317.08
2019-03-05T20:33:57.039Z,96309.70
2019-03-05T20:36:28.075Z,96302.56
2019-03-05T20:39:00.883Z,96310.23
2019-03-05T20:41:33.936Z,96303.58
2019-03-05T20:44:05.739Z,96307.80
2019-03-05T20:46:37.494Z,96298.53
2019-03-05T20:49:08.765Z,96303.86
2019-03-05T20:51:40.843Z,96305.58
2019-03-05T20:54:13.269Z,96306.98
2019-03-05T20:56:44.802Z,96305.58
2019-03-05T20:59:16.055Z,96311.25
2019-03-05T21:01:48.257Z,96317.47
2019-03-05T21:04:19.691Z,96310.63
2019-03-05T21:06:50.774Z,96312.95
2019-03-05T21:09:23.915Z,96310.53
2019-03-05T21:11:55.392Z,96319.50
2019-03-05T21:14:26.858Z,96322.13
2019-03-05T21:16:58.462Z,96324.25
2019-03-05T21:19:30.078Z,96316.16
2019-03-05T21:22:01.997Z,96305.72
2019-03-05T21:24:33.437Z,96305.09
2019-03-05T21:27:04.848Z,96302.08
2019-03-05T21:29:36.178Z,96294.22
2019-03-05T21:32:07.183Z,96298.25
2019-03-05T21:34:38.542Z,96295.52
2019-03-05T21:37:09.867Z,96296.05
2019-03-05T21:39:41.518Z,96290.88
2019-03-05T21:42:13.178Z,96291.50
2019-03-05T21:44:44.423Z,96288.16
2019-03-05T21:47:15.896Z,96287.77
2019-03-05T21:49:47.354Z,96289.99
2019-03-05T21:52:19.085Z,96284.36
2019-03-05T21:54:50.447Z,96291.11
2019-03-05T21:57:21.794Z,96303.98
2019-03-05T21:59:53.845Z,96302.67
2019-03-05T22:02:24.823Z,96305.81
2019-03-05T22:04:56.642Z,96308.63
2019-03-05T22:07:28.023Z,96300.48
2019-03-05T22:10:00.479Z,96301.59
2019-03-05T22:12:31.968Z,96304.80
2019-03-05T22:15:03.503Z,96306.02
2019-03-05T22:17:36.115Z,96302.17
2019-03-05T22:20:09.201Z,96300.48
2019-03-05T22:22:41.005Z,96302.70
2019-03-05T22:25:14.907Z,96295.42
2019-03-05T22:27:46.353Z,96294.02
2019-03-05T22:30:23.567Z,96291.17
2019-03-05T22:32:54.876Z,96288.55
2019-03-05T22:35:26.848Z,96293.00
2019-03-05T22:37:58.306Z,96296.41
2019-03-05T22:40:30.462Z,96291.80
2019-03-05T22:43:01.731Z,96289.80
2019-03-05T22:45:32.889Z,96288.48
2019-03-05T22:48:04.416Z,96291.89
2019-03-05T22:50:35.661Z,96293.69
2019-03-05T22:53:07.003Z,96294.49
2019-03-05T22:55:38.382Z,96290.48
2019-03-05T22:58:09.710Z,96294.41
2019-03-05T23:01:06.613Z,96291.11
2019-03-05T23:04:01.150Z,96289.80
2019-03-05T23:06:32.718Z,96290.77
2019-03-05T23:09:06.847Z,96287.34
2019-03-05T23:11:40.190Z,96284.42
2019-03-05T23:14:11.476Z,96283.44
2019-03-05T23:16:43.022Z,96281.31
2019-03-05T23:19:16.508Z,96276.59
2019-03-05T23:21:47.636Z,96278.89
2019-03-05T23:24:18.891Z,96270.34
2019-03-05T23:26:50.177Z,96265.39
2019-03-05T23:29:27.567Z,96268.83
2019-03-05T23:32:00.551Z,96266.98
2019-03-05T23:34:32.377Z,96265.38
2019-03-05T23:37:03.623Z,96263.16
2019-03-05T23:39:35.281Z,96266.27
2019-03-05T23:42:06.346Z,96262.87
2019-03-05T23:44:38.276Z,96256.61
2019-03-05T23:47:10.593Z,96252.78
2019-03-05T23:49:43.279Z,96245.93
2019-03-05T23:52:14.683Z,96243.93
2019-03-05T23:54:45.998Z,96246.23
2019-03-05T23:57:17.277Z,96242.79
2019-03-05T23:59:48.527Z,96242.39
